createdAt,value
2018-10-11T00:01:50.903Z,89.40
2018-10-11T00:04:19.644Z,89.40
2018-10-11T00:06:48.312Z,89.20
2018-10-11T00:09:16.996Z,89.20
2018-10-11T00:11:45.718Z,89.10
2018-10-11T00:14:14.442Z,88.80
2018-10-11T00:16:43.124Z,89.00
2018-10-11T00:19:11.809Z,89.10
2018-10-11T00:21:40.516Z,89.50
2018-10-11T00:24:09.210Z,89.20
2018-10-11T00:26:38.193Z,89.00
2018-10-11T00:29:06.865Z,89.50
2018-10-11T00:31:35.525Z,89.60
2018-10-11T00:34:04.221Z,89.20
2018-10-11T00:36:32.907Z,88.80
2018-10-11T00:39:01.569Z,88.40
2018-10-11T00:41:30.247Z,88.50
2018-10-11T00:43:58.916Z,88.70
2018-10-11T00:46:27.599Z,88.00
2018-10-11T00:48:56.289Z,88.20
2018-10-11T00:51:24.975Z,87.90
2018-10-11T00:53:53.641Z,88.20
2018-10-11T00:56:22.318Z,88.10
2018-10-11T00:58:50.984Z,88.50
2018-10-11T01:01:19.685Z,88.20
2018-10-11T01:03:48.359Z,87.60
2018-10-11T01:06:17.050Z,88.00
2018-10-11T01:08:45.744Z,88.00
2018-10-11T01:11:14.422Z,87.60
2018-10-11T01:13:43.112Z,87.60
2018-10-11T01:16:11.799Z,87.50
2018-10-11T01:18:40.528Z,87.50
2018-10-11T01:21:09.480Z,87.50
2018-10-11T01:23:38.393Z,87.50
2018-10-11T01:26:07.130Z,87.50
2018-10-11T01:28:35.866Z,87.10
2018-10-11T01:31:09.984Z,87.50
2018-10-11T01:33:38.636Z,87.50
2018-10-11T01:36:07.300Z,87.50
2018-10-11T01:38:36.119Z,87.30
2018-10-11T01:41:04.790Z,87.20
2018-10-11T01:43:33.557Z,87.30
2018-10-11T01:46:02.237Z,87.40
2018-10-11T01:48:30.897Z,87.30
2018-10-11T01:50:59.597Z,87.30
2018-10-11T01:53:28.320Z,87.50
2018-10-11T01:55:57.041Z,88.40
2018-10-11T01:58:25.745Z,88.60
2018-10-11T02:00:54.424Z,88.60
2018-10-11T02:03:23.110Z,88.40
2018-10-11T02:05:51.785Z,88.60
2018-10-11T02:08:20.444Z,88.40
2018-10-11T02:10:49.140Z,88.30
2018-10-11T02:13:17.790Z,88.50
2018-10-11T02:15:46.483Z,89.30
2018-10-11T02:18:15.152Z,89.40
2018-10-11T02:20:43.813Z,89.00
2018-10-11T02:23:12.495Z,89.40
2018-10-11T02:25:41.213Z,89.40
2018-10-11T02:28:10.329Z,89.20
2018-10-11T02:30:39.033Z,89.40
2018-10-11T02:33:07.720Z,89.60
2018-10-11T02:35:36.417Z,89.40
2018-10-11T02:38:05.099Z,89.30
2018-10-11T02:40:33.788Z,89.30
2018-10-11T02:43:02.473Z,89.70
2018-10-11T02:45:31.175Z,89.80
2018-10-11T02:47:59.827Z,89.60
2018-10-11T02:50:28.521Z,89.70
2018-10-11T02:52:57.175Z,89.20
2018-10-11T02:55:27.011Z,89.20
2018-10-11T02:58:07.291Z,89.20
2018-10-11T03:00:36.170Z,89.40
2018-10-11T03:03:09.898Z,89.40
2018-10-11T03:05:41.166Z,89.30
2018-10-11T03:08:11.996Z,89.20
2018-10-11T03:10:40.674Z,88.90
2018-10-11T03:13:11.054Z,89.10
2018-10-11T03:15:40.162Z,88.80
2018-10-11T03:18:08.824Z,88.80
2018-10-11T03:20:37.618Z,88.50
2018-10-11T03:23:06.309Z,88.50
2018-10-11T03:25:34.983Z,89.00
2018-10-11T03:28:03.652Z,88.80
2018-10-11T03:30:32.413Z,88.60
2018-10-11T03:33:01.081Z,88.60
2018-10-11T03:35:29.766Z,88.70
2018-10-11T03:37:58.624Z,88.70
2018-10-11T03:40:27.667Z,88.70
2018-10-11T03:42:56.732Z,88.90
2018-10-11T03:45:25.595Z,88.80
2018-10-11T03:47:54.289Z,88.80
2018-10-11T03:50:22.953Z,88.90
2018-10-11T03:52:51.643Z,89.00
2018-10-11T03:55:20.353Z,89.00
2018-10-11T03:57:49.195Z,88.70
2018-10-11T04:00:18.007Z,88.80
2018-10-11T04:02:46.881Z,88.90
2018-10-11T04:05:15.738Z,89.10
2018-10-11T04:07:44.699Z,89.40
2018-10-11T04:10:13.558Z,89.70
2018-10-11T04:12:42.410Z,89.70
2018-10-11T04:15:11.234Z,89.70
2018-10-11T04:17:40.105Z,89.80
2018-10-11T04:20:08.969Z,89.80
2018-10-11T04:22:37.803Z,89.70
2018-10-11T04:25:06.605Z,89.90
2018-10-11T04:27:35.458Z,89.70
2018-10-11T04:30:04.390Z,89.30
2018-10-11T04:32:33.199Z,89.40
2018-10-11T04:35:02.101Z,89.80
2018-10-11T04:37:30.945Z,89.90
2018-10-11T04:39:59.741Z,89.80
2018-10-11T04:42:28.571Z,89.90
2018-10-11T04:44:57.531Z,89.70
2018-10-11T04:47:26.422Z,89.70
2018-10-11T04:49:55.227Z,89.70
2018-10-11T04:52:24.057Z,89.60
2018-10-11T04:54:52.971Z,89.30
2018-10-11T04:57:21.697Z,89.20
2018-10-11T04:59:50.399Z,89.70
2018-10-11T05:02:19.081Z,89.30
2018-10-11T05:04:47.825Z,90.00
2018-10-11T05:07:16.570Z,89.60
2018-10-11T05:09:45.266Z,89.50
2018-10-11T05:12:13.985Z,89.60
2018-10-11T05:14:43.139Z,89.50
2018-10-11T05:17:11.895Z,89.60
2018-10-11T05:19:40.743Z,89.70
2018-10-11T05:22:09.464Z,89.60
2018-10-11T05:24:38.193Z,89.90
2018-10-11T05:27:06.890Z,90.00
2018-10-11T05:29:35.604Z,90.30
2018-10-11T05:32:04.429Z,90.10
2018-10-11T05:34:33.116Z,90.10
2018-10-11T05:37:01.808Z,90.20
2018-10-11T05:39:30.537Z,90.10
2018-10-11T05:41:59.556Z,90.00
2018-10-11T05:44:28.423Z,90.20
2018-10-11T05:46:57.080Z,90.20
2018-10-11T05:49:25.759Z,89.70
2018-10-11T05:51:54.480Z,89.80
2018-10-11T05:54:23.184Z,89.70
2018-10-11T05:56:52.003Z,90.00
2018-10-11T05:59:20.595Z,89.90
2018-10-11T06:01:49.301Z,89.70
2018-10-11T06:04:18.224Z,89.70
2018-10-11T06:06:48.395Z,90.00
2018-10-11T06:09:17.202Z,89.40
2018-10-11T06:11:46.206Z,90.00
2018-10-11T06:14:15.145Z,90.00
2018-10-11T06:16:44.001Z,90.00
2018-10-11T06:19:13.839Z,90.00
2018-10-11T06:21:42.519Z,90.00
2018-10-11T06:24:11.488Z,90.00
2018-10-11T06:26:40.302Z,90.20
2018-10-11T06:29:09.109Z,90.10
2018-10-11T06:31:37.794Z,90.10
2018-10-11T06:34:06.684Z,90.00
2018-10-11T06:36:35.509Z,90.20
2018-10-11T06:39:05.182Z,89.70
2018-10-11T06:41:33.956Z,89.70
2018-10-11T06:44:02.649Z,89.10
2018-10-11T06:46:31.366Z,88.60
2018-10-11T06:49:00.056Z,88.60
2018-10-11T06:51:28.879Z,88.40
2018-10-11T06:53:57.602Z,88.60
2018-10-11T06:56:26.486Z,88.70
2018-10-11T06:58:55.168Z,88.70
2018-10-11T07:01:24.010Z,89.00
2018-10-11T07:03:52.885Z,88.20
2018-10-11T07:06:21.623Z,87.80
2018-10-11T07:08:50.396Z,87.40
2018-10-11T07:11:19.262Z,87.60
2018-10-11T07:13:47.950Z,87.50
2018-10-11T07:16:16.624Z,87.60
2018-10-11T07:18:45.308Z,87.30
2018-10-11T07:21:14.009Z,87.50
2018-10-11T07:23:42.697Z,87.20
2018-10-11T07:26:11.453Z,87.60
2018-10-11T07:28:40.135Z,87.40
2018-10-11T07:31:08.848Z,87.40
2018-10-11T07:33:37.549Z,87.50
2018-10-11T07:36:06.232Z,87.00
2018-10-11T07:38:35.083Z,86.40
2018-10-11T07:41:03.879Z,86.60
2018-10-11T07:43:32.658Z,86.20
2018-10-11T07:46:01.331Z,85.50
2018-10-11T07:48:30.181Z,85.60
2018-10-11T07:50:58.928Z,85.50
2018-10-11T07:53:27.712Z,85.40
2018-10-11T07:55:56.460Z,85.20
2018-10-11T07:58:25.175Z,84.50
2018-10-11T08:00:53.925Z,84.80
2018-10-11T08:03:22.839Z,84.20
2018-10-11T08:05:51.601Z,83.50
2018-10-11T08:08:20.345Z,83.50
2018-10-11T08:10:49.154Z,82.60
2018-10-11T08:13:17.826Z,82.10
2018-10-11T08:15:46.550Z,82.10
2018-10-11T08:18:15.280Z,81.20
2018-10-11T08:20:44.098Z,81.50
2018-10-11T08:23:12.763Z,81.30
2018-10-11T08:25:41.748Z,80.80
2018-10-11T08:28:10.280Z,80.20
2018-10-11T08:30:39.036Z,80.20
2018-10-11T08:33:07.743Z,80.20
2018-10-11T08:35:36.432Z,80.10
2018-10-11T08:38:05.346Z,80.00
2018-10-11T08:40:33.965Z,79.10
2018-10-11T08:43:02.708Z,79.20
2018-10-11T08:45:31.416Z,78.70
2018-10-11T08:48:00.320Z,79.10
2018-10-11T08:50:29.364Z,78.30
2018-10-11T08:52:58.214Z,78.30
2018-10-11T08:55:27.101Z,78.80
2018-10-11T08:57:55.973Z,77.90
2018-10-11T09:00:24.983Z,77.60
2018-10-11T09:02:53.968Z,77.30
2018-10-11T09:05:22.721Z,77.00
2018-10-11T09:07:51.565Z,77.00
2018-10-11T09:10:20.561Z,76.90
2018-10-11T09:12:50.085Z,76.20
2018-10-11T09:15:18.847Z,74.70
2018-10-11T09:17:47.561Z,73.00
2018-10-11T09:20:16.269Z,70.60
2018-10-11T09:22:45.054Z,69.80
2018-10-11T09:25:13.754Z,69.70
2018-10-11T09:27:42.457Z,68.50
2018-10-11T09:30:11.235Z,68.70
2018-10-11T09:32:39.861Z,68.60
2018-10-11T09:35:08.568Z,68.70
2018-10-11T09:37:37.410Z,69.00
2018-10-11T09:40:06.125Z,69.00
2018-10-11T09:42:34.834Z,67.50
2018-10-11T09:45:03.648Z,68.40
2018-10-11T09:47:32.390Z,68.70
2018-10-11T09:50:01.088Z,68.10
2018-10-11T09:52:29.796Z,67.10
2018-10-11T09:54:58.593Z,67.60
2018-10-11T09:57:30.382Z,67.50
2018-10-11T09:59:59.857Z,66.70
2018-10-11T10:02:29.081Z,67.50
2018-10-11T10:05:00.615Z,68.10
2018-10-11T10:07:29.520Z,66.60
2018-10-11T10:09:58.302Z,66.70
2018-10-11T10:12:26.969Z,66.10
2018-10-11T10:14:55.659Z,65.30
2018-10-11T10:17:24.374Z,65.80
2018-10-11T10:19:53.158Z,66.30
2018-10-11T10:22:21.857Z,64.30
2018-10-11T10:24:50.546Z,63.90
2018-10-11T10:27:19.375Z,63.80
2018-10-11T10:29:48.012Z,63.80
2018-10-11T10:32:16.722Z,62.90
2018-10-11T10:34:45.463Z,60.80
2018-10-11T10:37:14.216Z,60.30
2018-10-11T10:39:42.926Z,59.80
2018-10-11T10:42:11.700Z,59.40
2018-10-11T10:44:40.386Z,57.90
2018-10-11T10:47:09.078Z,57.00
2018-10-11T10:49:37.781Z,56.20
2018-10-11T10:52:06.598Z,56.40
2018-10-11T10:54:36.006Z,53.40
2018-10-11T10:57:05.269Z,54.10
2018-10-11T10:59:34.012Z,53.20
2018-10-11T11:02:02.973Z,52.90
2018-10-11T11:04:31.703Z,51.10
2018-10-11T11:07:00.422Z,51.80
2018-10-11T11:09:29.156Z,50.40
2018-10-11T11:11:57.896Z,49.30
2018-10-11T11:14:26.731Z,49.50
2018-10-11T11:16:55.406Z,48.50
2018-10-11T11:19:24.131Z,47.70
2018-10-11T11:21:52.833Z,47.10
2018-10-11T11:24:22.005Z,48.70
2018-10-11T11:26:50.751Z,49.30
2018-10-11T11:29:19.477Z,50.80
2018-10-11T11:31:48.165Z,51.70
2018-10-11T11:34:16.961Z,53.30
2018-10-11T11:36:45.645Z,53.80
2018-10-11T11:39:14.539Z,54.30
2018-10-11T11:41:43.238Z,55.60
2018-10-11T11:44:11.924Z,56.70
2018-10-11T11:46:40.681Z,57.10
2018-10-11T11:49:09.355Z,57.00
2018-10-11T11:51:38.074Z,55.50
2018-10-11T11:54:22.626Z,55.60
2018-10-11T11:56:52.168Z,55.20
2018-10-11T11:59:20.904Z,55.30
2018-10-11T12:01:49.610Z,55.50
2018-10-11T12:04:18.452Z,55.00
2018-10-11T12:06:47.166Z,55.30
2018-10-11T12:09:15.872Z,55.00
2018-10-11T12:11:44.664Z,54.60
2018-10-11T12:14:13.396Z,55.00
2018-10-11T12:16:42.163Z,55.30
2018-10-11T12:19:11.457Z,55.00
2018-10-11T12:21:40.454Z,54.40
2018-10-11T12:24:09.408Z,54.40
2018-10-11T12:26:38.189Z,54.20
2018-10-11T12:29:06.984Z,53.80
2018-10-11T12:31:35.584Z,54.20
2018-10-11T12:34:04.309Z,53.80
2018-10-11T12:36:33.073Z,53.40
2018-10-11T12:39:01.763Z,54.40
2018-10-11T12:41:30.457Z,54.50
2018-10-11T12:43:59.172Z,54.40
2018-10-11T12:46:27.931Z,54.60
2018-10-11T12:48:56.659Z,53.70
2018-10-11T12:51:25.351Z,54.20
2018-10-11T12:53:54.080Z,53.80
2018-10-11T12:56:22.835Z,53.40
2018-10-11T12:58:51.453Z,53.60
2018-10-11T13:01:22.977Z,53.30
2018-10-11T13:03:48.825Z,53.70
2018-10-11T13:06:17.525Z,54.00
2018-10-11T13:08:46.240Z,54.60
2018-10-11T13:11:15.030Z,53.70
2018-10-11T13:13:47.861Z,53.60
2018-10-11T13:16:12.549Z,52.80
2018-10-11T13:18:41.357Z,52.90
2018-10-11T13:21:10.037Z,52.40
2018-10-11T13:23:38.821Z,52.00
2018-10-11T13:26:07.498Z,51.60
2018-10-11T13:28:36.237Z,51.20
2018-10-11T13:31:04.907Z,51.60
2018-10-11T13:33:33.641Z,51.40
2018-10-11T13:36:02.399Z,51.50
2018-10-11T13:38:31.100Z,51.80
2018-10-11T13:41:03.079Z,51.30
2018-10-11T13:43:28.455Z,51.30
2018-10-11T13:46:00.109Z,50.80
2018-10-11T13:48:25.833Z,50.30
2018-10-11T13:50:54.561Z,49.80
2018-10-11T13:53:24.738Z,50.00
2018-10-11T13:55:56.672Z,49.90
2018-10-11T13:58:20.710Z,49.50
2018-10-11T14:00:49.430Z,49.80
2018-10-11T14:03:18.125Z,49.60
2018-10-11T14:05:47.066Z,49.60
2018-10-11T14:08:15.784Z,48.90
2018-10-11T14:10:44.607Z,48.60
2018-10-11T14:13:16.432Z,49.20
2018-10-11T14:15:42.006Z,48.70
2018-10-11T14:18:12.646Z,49.20
2018-10-11T14:20:39.474Z,48.70
2018-10-11T14:23:08.229Z,48.30
2018-10-11T14:25:37.160Z,48.20
2018-10-11T14:28:06.198Z,47.80
2018-10-11T14:30:34.996Z,48.40
2018-10-11T14:33:03.730Z,48.40
2018-10-11T14:35:32.442Z,48.80
2018-10-11T14:38:01.242Z,48.10
2018-10-11T14:40:30.104Z,47.80
2018-10-11T14:42:58.780Z,48.50
2018-10-11T14:45:27.532Z,48.00
2018-10-11T14:47:56.390Z,47.80
2018-10-11T14:50:25.251Z,47.60
2018-10-11T14:52:54.275Z,48.50
2018-10-11T14:55:23.132Z,48.10
2018-10-11T14:57:52.305Z,48.60
2018-10-11T15:00:21.313Z,48.10
2018-10-11T15:02:50.345Z,48.50
2018-10-11T15:05:19.230Z,48.40
2018-10-11T15:07:48.068Z,48.20
2018-10-11T15:10:17.028Z,48.30
2018-10-11T15:12:45.906Z,47.90
2018-10-11T15:15:14.834Z,48.10
2018-10-11T15:17:43.799Z,47.90
2018-10-11T15:20:12.646Z,48.70
2018-10-11T15:22:41.500Z,48.40
2018-10-11T15:25:10.358Z,48.20
2018-10-11T15:27:39.265Z,48.10
2018-10-11T15:30:08.557Z,47.80
2018-10-11T15:32:37.515Z,48.40
2018-10-11T15:35:06.449Z,48.40
2018-10-11T15:37:35.252Z,48.70
2018-10-11T15:40:04.016Z,48.80
2018-10-11T15:42:32.708Z,49.00
2018-10-11T15:45:01.520Z,49.70
2018-10-11T15:47:30.395Z,49.80
2018-10-11T15:49:59.297Z,50.30
2018-10-11T15:52:28.365Z,50.70
2018-10-11T15:54:57.111Z,50.90
2018-10-11T15:57:25.868Z,51.70
2018-10-11T15:59:55.756Z,52.10
2018-10-11T16:02:24.505Z,52.40
2018-10-11T16:04:53.294Z,53.80
2018-10-11T16:07:21.988Z,53.50
2018-10-11T16:09:50.673Z,53.80
2018-10-11T16:12:19.439Z,55.50
2018-10-11T16:14:48.198Z,55.70
2018-10-11T16:17:16.887Z,55.70
2018-10-11T16:19:45.650Z,56.10
2018-10-11T16:22:14.374Z,56.00
2018-10-11T16:24:43.202Z,56.00
2018-10-11T16:27:11.881Z,56.20
2018-10-11T16:29:40.728Z,54.70
2018-10-11T16:32:09.853Z,55.10
2018-10-11T16:34:38.600Z,55.20
2018-10-11T16:37:07.318Z,55.70
2018-10-11T16:39:36.064Z,56.10
2018-10-11T16:42:05.030Z,57.70
2018-10-11T16:44:33.729Z,57.80
2018-10-11T16:47:02.472Z,58.90
2018-10-11T16:49:31.203Z,58.80
2018-10-11T16:52:00.113Z,58.90
2018-10-11T16:54:29.659Z,59.10
2018-10-11T16:56:58.457Z,59.60
2018-10-11T16:59:27.175Z,60.00
2018-10-11T17:01:55.906Z,60.20
2018-10-11T17:04:24.630Z,60.20
2018-10-11T17:06:53.299Z,60.50
2018-10-11T17:09:21.980Z,60.80
2018-10-11T17:11:50.692Z,61.00
2018-10-11T17:14:19.380Z,61.30
2018-10-11T17:16:48.069Z,61.30
2018-10-11T17:19:16.758Z,61.80
2018-10-11T17:21:45.621Z,62.20
2018-10-11T17:24:14.329Z,61.90
2018-10-11T17:26:43.060Z,62.80
2018-10-11T17:29:11.813Z,62.90
2018-10-11T17:31:40.496Z,63.10
2018-10-11T17:34:09.175Z,63.40
2018-10-11T17:36:37.936Z,63.40
2018-10-11T17:39:08.161Z,63.60
2018-10-11T17:41:36.988Z,63.60
2018-10-11T17:44:05.842Z,63.70
2018-10-11T17:46:34.570Z,63.70
2018-10-11T17:49:03.300Z,64.10
2018-10-11T17:51:32.008Z,64.00
2018-10-11T17:54:00.723Z,64.00
2018-10-11T17:56:29.432Z,64.10
2018-10-11T17:58:58.187Z,64.00
2018-10-11T18:01:26.846Z,64.10
2018-10-11T18:03:55.604Z,63.80
2018-10-11T18:06:24.325Z,64.00
2018-10-11T18:08:53.102Z,64.10
2018-10-11T18:11:21.824Z,63.90
2018-10-11T18:13:50.520Z,64.50
2018-10-11T18:16:19.264Z,64.20
2018-10-11T18:18:47.905Z,64.50
2018-10-11T18:21:16.674Z,64.60
2018-10-11T18:23:45.384Z,65.00
2018-10-11T18:26:14.121Z,64.90
2018-10-11T18:28:42.934Z,64.90
2018-10-11T18:31:11.679Z,65.20
2018-10-11T18:33:40.377Z,65.30
2018-10-11T18:36:09.105Z,65.60
2018-10-11T18:38:37.891Z,65.80
2018-10-11T18:41:06.601Z,66.30
2018-10-11T18:43:35.321Z,66.30
2018-10-11T18:46:04.057Z,66.20
2018-10-11T18:48:32.809Z,66.00
2018-10-11T18:51:01.626Z,65.90
2018-10-11T18:53:30.199Z,65.60
2018-10-11T18:55:58.927Z,65.80
2018-10-11T18:58:27.642Z,65.60
2018-10-11T19:00:56.350Z,65.80
2018-10-11T19:03:25.043Z,65.70
2018-10-11T19:05:53.767Z,65.90
2018-10-11T19:08:22.502Z,65.40
2018-10-11T19:10:51.193Z,65.40
2018-10-11T19:13:19.940Z,65.40
2018-10-11T19:15:48.662Z,65.40
2018-10-11T19:18:17.355Z,65.80
2018-10-11T19:20:46.087Z,65.80
2018-10-11T19:23:14.814Z,66.10
2018-10-11T19:25:43.616Z,66.90
2018-10-11T19:28:12.459Z,67.20
2018-10-11T19:30:41.216Z,67.80
2018-10-11T19:33:09.915Z,68.10
2018-10-11T19:35:38.674Z,67.80
2018-10-11T19:38:07.386Z,68.00
2018-10-11T19:40:36.116Z,67.90
2018-10-11T19:43:04.952Z,67.90
2018-10-11T19:45:33.774Z,67.80
2018-10-11T19:48:02.497Z,67.20
2018-10-11T19:50:31.288Z,67.80
2018-10-11T19:53:00.035Z,68.10
2018-10-11T19:55:28.778Z,67.90
2018-10-11T19:57:57.483Z,68.30
2018-10-11T20:00:26.271Z,68.10
2018-10-11T20:02:54.977Z,68.60
2018-10-11T20:05:24.067Z,68.60
2018-10-11T20:07:52.924Z,68.50
2018-10-11T20:10:22.036Z,68.50
2018-10-11T20:12:50.765Z,68.80
2018-10-11T20:15:19.477Z,69.40
2018-10-11T20:17:48.170Z,69.10
2018-10-11T20:20:16.891Z,69.40
2018-10-11T20:22:45.634Z,69.50
2018-10-11T20:25:14.340Z,69.70
2018-10-11T20:27:43.531Z,69.90
2018-10-11T20:30:12.350Z,70.20
2018-10-11T20:32:41.345Z,71.00
2018-10-11T20:35:10.145Z,70.30
2018-10-11T20:37:38.976Z,70.30
2018-10-11T20:40:07.915Z,70.40
2018-10-11T20:42:36.807Z,70.70
2018-10-11T20:45:05.805Z,70.80
2018-10-11T20:47:34.547Z,71.00
2018-10-11T20:50:03.967Z,71.10
2018-10-11T20:52:32.683Z,71.30
2018-10-11T20:55:01.393Z,71.30
2018-10-11T20:57:31.396Z,71.50
2018-10-11T21:00:00.645Z,71.50
2018-10-11T21:02:29.337Z,71.30
2018-10-11T21:04:58.083Z,71.30
2018-10-11T21:07:26.769Z,71.40
2018-10-11T21:09:55.525Z,71.40
2018-10-11T21:12:24.210Z,71.20
2018-10-11T21:14:52.928Z,71.40
2018-10-11T21:17:21.614Z,70.50
2018-10-11T21:19:50.349Z,70.40
2018-10-11T21:22:19.034Z,70.10
2018-10-11T21:24:47.751Z,70.30
2018-10-11T21:27:16.531Z,70.40
2018-10-11T21:29:45.447Z,70.20
2018-10-11T21:32:14.213Z,70.40
2018-10-11T21:34:43.118Z,70.00
2018-10-11T21:37:11.996Z,69.70
2018-10-11T21:39:40.812Z,69.70
2018-10-11T21:42:09.734Z,69.30
2018-10-11T21:44:39.097Z,69.20
2018-10-11T21:47:07.900Z,69.00
2018-10-11T21:49:36.612Z,69.50
2018-10-11T21:52:05.271Z,69.20
2018-10-11T21:54:33.976Z,69.50
2018-10-11T21:57:02.666Z,68.50
2018-10-11T21:59:31.328Z,67.80
2018-10-11T22:02:00.015Z,67.80
2018-10-11T22:04:28.728Z,67.90
2018-10-11T22:06:57.446Z,67.20
2018-10-11T22:09:32.811Z,67.30
2018-10-11T22:12:01.501Z,67.80
2018-10-11T22:14:30.316Z,67.50
2018-10-11T22:16:58.983Z,67.70
2018-10-11T22:19:27.760Z,67.70
2018-10-11T22:21:56.587Z,67.60
2018-10-11T22:24:25.343Z,67.90
2018-10-11T22:26:54.057Z,67.20
2018-10-11T22:29:22.777Z,67.10
2018-10-11T22:31:51.487Z,67.30
2018-10-11T22:34:20.159Z,67.60
2018-10-11T22:36:48.896Z,67.40
2018-10-11T22:39:17.553Z,67.60
2018-10-11T22:41:46.257Z,67.60
2018-10-11T22:44:14.983Z,67.60
2018-10-11T22:46:43.651Z,67.50
2018-10-11T22:49:12.339Z,67.30
2018-10-11T22:51:41.256Z,67.60
2018-10-11T22:54:10.537Z,67.00
2018-10-11T22:56:39.257Z,67.70
2018-10-11T22:59:07.946Z,67.80
2018-10-11T23:01:37.223Z,67.80
2018-10-11T23:04:05.921Z,67.80
2018-10-11T23:06:34.617Z,68.10
2018-10-11T23:09:03.511Z,67.80
2018-10-11T23:11:32.209Z,67.80
2018-10-11T23:14:00.877Z,67.50
2018-10-11T23:16:29.564Z,67.50
2018-10-11T23:18:58.225Z,67.30
2018-10-11T23:21:26.919Z,67.10
2018-10-11T23:23:55.644Z,67.20
2018-10-11T23:26:24.431Z,67.20
2018-10-11T23:28:53.151Z,66.70
2018-10-11T23:31:21.861Z,66.90
2018-10-11T23:33:50.557Z,67.00
2018-10-11T23:36:19.264Z,67.30
2018-10-11T23:38:48.002Z,66.80
2018-10-11T23:41:16.784Z,66.80
2018-10-11T23:43:45.571Z,67.30
2018-10-11T23:46:14.279Z,67.40
2018-10-11T23:48:42.980Z,67.40
2018-10-11T23:51:11.720Z,67.40
2018-10-11T23:53:40.543Z,67.50
2018-10-11T23:56:09.239Z,67.40
2018-10-11T23:58:38.065Z,67.70
